sensor_id;sensor_type;location;lat;lon;timestamp;P1;durP1;ratioP1;P2;durP2;ratioP2
10920;SDS011;5513;50.580;8.818;2022-12-07T00:02:28;25.47;;;15.87;;
10920;SDS011;5513;50.580;8.818;2022-12-07T00:04:57;27.20;;;15.73;;
10920;SDS011;5513;50.580;8.818;2022-12-07T00:07:25;24.23;;;15.80;;
10920;SDS011;5513;50.580;8.818;2022-12-07T00:09:53;29.30;;;16.83;;
10920;SDS011;5513;50.580;8.818;2022-12-07T00:12:25;23.93;;;14.90;;
10920;SDS011;5513;50.580;8.818;2022-12-07T00:14:54;23.87;;;15.03;;
10920;SDS011;5513;50.580;8.818;2022-12-07T00:17:22;23.83;;;14.77;;
10920;SDS011;5513;50.580;8.818;2022-12-07T00:19:53;23.67;;;15.87;;
10920;SDS011;5513;50.580;8.818;2022-12-07T00:22:21;26.50;;;14.73;;
10920;SDS011;5513;50.580;8.818;2022-12-07T00:24:51;23.57;;;15.20;;
10920;SDS011;5513;50.580;8.818;2022-12-07T00:27:19;24.43;;;14.93;;
10920;SDS011;5513;50.580;8.818;2022-12-07T00:29:47;26.83;;;16.27;;
10920;SDS011;5513;50.580;8.818;2022-12-07T00:32:16;25.00;;;15.27;;
10920;SDS011;5513;50.580;8.818;2022-12-07T00:34:44;24.93;;;14.47;;
10920;SDS011;5513;50.580;8.818;2022-12-07T00:37:14;24.37;;;14.47;;
10920;SDS011;5513;50.580;8.818;2022-12-07T00:39:42;25.20;;;15.50;;
10920;SDS011;5513;50.580;8.818;2022-12-07T00:42:11;24.87;;;14.83;;
10920;SDS011;5513;50.580;8.818;2022-12-07T00:44:39;24.80;;;15.30;;
10920;SDS011;5513;50.580;8.818;2022-12-07T00:47:08;24.60;;;14.93;;
10920;SDS011;5513;50.580;8.818;2022-12-07T00:49:37;24.27;;;15.27;;
10920;SDS011;5513;50.580;8.818;2022-12-07T00:52:06;26.03;;;16.43;;
10920;SDS011;5513;50.580;8.818;2022-12-07T00:54:36;28.10;;;16.90;;
10920;SDS011;5513;50.580;8.818;2022-12-07T00:57:04;27.10;;;16.63;;
10920;SDS011;5513;50.580;8.818;2022-12-07T00:59:33;25.73;;;15.80;;
10920;SDS011;5513;50.580;8.818;2022-12-07T01:02:03;28.90;;;15.97;;
10920;SDS011;5513;50.580;8.818;2022-12-07T01:04:33;30.17;;;17.97;;
10920;SDS011;5513;50.580;8.818;2022-12-07T01:07:01;27.97;;;17.03;;
10920;SDS011;5513;50.580;8.818;2022-12-07T01:09:30;28.23;;;16.93;;
10920;SDS011;5513;50.580;8.818;2022-12-07T01:12:01;28.30;;;17.30;;
10920;SDS011;5513;50.580;8.818;2022-12-07T01:14:29;29.53;;;17.73;;
10920;SDS011;5513;50.580;8.818;2022-12-07T01:17:03;34.27;;;19.60;;
10920;SDS011;5513;50.580;8.818;2022-12-07T01:19:32;31.70;;;18.33;;
10920;SDS011;5513;50.580;8.818;2022-12-07T01:22:00;34.27;;;20.13;;
10920;SDS011;5513;50.580;8.818;2022-12-07T01:24:28;41.60;;;24.97;;
10920;SDS011;5513;50.580;8.818;2022-12-07T01:26:56;36.83;;;22.10;;
10920;SDS011;5513;50.580;8.818;2022-12-07T01:29:26;39.33;;;21.20;;
10920;SDS011;5513;50.580;8.818;2022-12-07T01:31:54;40.37;;;20.27;;
10920;SDS011;5513;50.580;8.818;2022-12-07T01:34:23;36.53;;;21.03;;
10920;SDS011;5513;50.580;8.818;2022-12-07T01:36:51;33.60;;;19.63;;
10920;SDS011;5513;50.580;8.818;2022-12-07T01:39:20;34.93;;;20.93;;
10920;SDS011;5513;50.580;8.818;2022-12-07T01:41:48;34.77;;;20.33;;
10920;SDS011;5513;50.580;8.818;2022-12-07T01:44:18;34.67;;;20.40;;
10920;SDS011;5513;50.580;8.818;2022-12-07T01:46:50;31.93;;;21.57;;
10920;SDS011;5513;50.580;8.818;2022-12-07T01:49:22;30.63;;;18.27;;
10920;SDS011;5513;50.580;8.818;2022-12-07T01:51:56;28.87;;;17.87;;
10920;SDS011;5513;50.580;8.818;2022-12-07T01:54:32;30.57;;;17.53;;
10920;SDS011;5513;50.580;8.818;2022-12-07T01:57:03;30.00;;;19.10;;
10920;SDS011;5513;50.580;8.818;2022-12-07T01:59:35;30.97;;;18.77;;
10920;SDS011;5513;50.580;8.818;2022-12-07T02:02:07;27.90;;;17.33;;
10920;SDS011;5513;50.580;8.818;2022-12-07T02:04:45;25.87;;;14.60;;
10920;SDS011;5513;50.580;8.818;2022-12-07T02:07:14;23.33;;;14.97;;
10920;SDS011;5513;50.580;8.818;2022-12-07T02:09:43;28.43;;;14.63;;
10920;SDS011;5513;50.580;8.818;2022-12-07T02:12:12;21.20;;;14.73;;
10920;SDS011;5513;50.580;8.818;2022-12-07T02:14:40;20.77;;;14.03;;
10920;SDS011;5513;50.580;8.818;2022-12-07T02:17:12;23.33;;;15.50;;
10920;SDS011;5513;50.580;8.818;2022-12-07T02:20:00;21.13;;;13.00;;
10920;SDS011;5513;50.580;8.818;2022-12-07T02:23:00;21.93;;;13.83;;
10920;SDS011;5513;50.580;8.818;2022-12-07T02:29:07;20.33;;;12.60;;
10920;SDS011;5513;50.580;8.818;2022-12-07T02:31:43;22.83;;;13.00;;
10920;SDS011;5513;50.580;8.818;2022-12-07T02:34:20;20.07;;;12.57;;
10920;SDS011;5513;50.580;8.818;2022-12-07T02:36:55;17.73;;;11.83;;
10920;SDS011;5513;50.580;8.818;2022-12-07T02:39:33;19.57;;;12.37;;
10920;SDS011;5513;50.580;8.818;2022-12-07T02:42:27;19.13;;;11.60;;
10920;SDS011;5513;50.580;8.818;2022-12-07T02:45:01;18.53;;;12.70;;
10920;SDS011;5513;50.580;8.818;2022-12-07T02:47:34;17.57;;;10.93;;
10920;SDS011;5513;50.580;8.818;2022-12-07T02:50:05;17.87;;;11.57;;
10920;SDS011;5513;50.580;8.818;2022-12-07T02:52:36;19.37;;;12.27;;
10920;SDS011;5513;50.580;8.818;2022-12-07T02:55:05;16.90;;;11.10;;
10920;SDS011;5513;50.580;8.818;2022-12-07T02:57:46;19.30;;;11.77;;
10920;SDS011;5513;50.580;8.818;2022-12-07T03:00:27;17.37;;;11.60;;
10920;SDS011;5513;50.580;8.818;2022-12-07T03:02:58;19.40;;;12.33;;
10920;SDS011;5513;50.580;8.818;2022-12-07T03:05:36;17.90;;;11.77;;
10920;SDS011;5513;50.580;8.818;2022-12-07T03:08:21;17.27;;;11.33;;
10920;SDS011;5513;50.580;8.818;2022-12-07T03:10:58;16.50;;;11.17;;
10920;SDS011;5513;50.580;8.818;2022-12-07T03:13:30;17.27;;;11.07;;
10920;SDS011;5513;50.580;8.818;2022-12-07T03:16:08;16.37;;;11.20;;
10920;SDS011;5513;50.580;8.818;2022-12-07T03:18:44;19.30;;;10.90;;
10920;SDS011;5513;50.580;8.818;2022-12-07T03:21:17;15.70;;;10.60;;
10920;SDS011;5513;50.580;8.818;2022-12-07T03:23:51;16.53;;;10.80;;
10920;SDS011;5513;50.580;8.818;2022-12-07T03:26:23;18.97;;;11.50;;
10920;SDS011;5513;50.580;8.818;2022-12-07T03:28:58;17.30;;;11.43;;
10920;SDS011;5513;50.580;8.818;2022-12-07T03:31:32;15.37;;;10.70;;
10920;SDS011;5513;50.580;8.818;2022-12-07T03:34:04;16.57;;;10.70;;
10920;SDS011;5513;50.580;8.818;2022-12-07T03:36:39;16.53;;;10.60;;
10920;SDS011;5513;50.580;8.818;2022-12-07T03:39:13;16.27;;;10.80;;
10920;SDS011;5513;50.580;8.818;2022-12-07T03:41:50;15.67;;;10.47;;
10920;SDS011;5513;50.580;8.818;2022-12-07T03:44:21;14.83;;;10.47;;
10920;SDS011;5513;50.580;8.818;2022-12-07T03:47:02;17.43;;;10.67;;
10920;SDS011;5513;50.580;8.818;2022-12-07T03:49:37;15.07;;;9.93;;
10920;SDS011;5513;50.580;8.818;2022-12-07T03:52:16;16.20;;;10.67;;
10920;SDS011;5513;50.580;8.818;2022-12-07T03:54:52;15.00;;;9.93;;
10920;SDS011;5513;50.580;8.818;2022-12-07T03:57:25;16.10;;;10.60;;
10920;SDS011;5513;50.580;8.818;2022-12-07T03:59:55;16.33;;;10.30;;
10920;SDS011;5513;50.580;8.818;2022-12-07T04:02:29;13.67;;;9.40;;
10920;SDS011;5513;50.580;8.818;2022-12-07T04:04:58;16.70;;;11.53;;
10920;SDS011;5513;50.580;8.818;2022-12-07T04:07:28;15.60;;;9.80;;
10920;SDS011;5513;50.580;8.818;2022-12-07T04:09:57;14.67;;;9.57;;
10920;SDS011;5513;50.580;8.818;2022-12-07T04:12:26;18.17;;;11.03;;
10920;SDS011;5513;50.580;8.818;2022-12-07T04:14:56;17.80;;;10.73;;
10920;SDS011;5513;50.580;8.818;2022-12-07T04:17:24;17.87;;;10.70;;
10920;SDS011;5513;50.580;8.818;2022-12-07T04:19:54;16.57;;;11.03;;
10920;SDS011;5513;50.580;8.818;2022-12-07T04:22:23;17.67;;;10.37;;
10920;SDS011;5513;50.580;8.818;2022-12-07T04:24:52;14.80;;;10.20;;
10920;SDS011;5513;50.580;8.818;2022-12-07T04:27:20;18.07;;;10.90;;
10920;SDS011;5513;50.580;8.818;2022-12-07T04:29:49;17.97;;;11.40;;
10920;SDS011;5513;50.580;8.818;2022-12-07T04:32:17;18.27;;;11.87;;
10920;SDS011;5513;50.580;8.818;2022-12-07T04:34:48;17.30;;;11.13;;
10920;SDS011;5513;50.580;8.818;2022-12-07T04:37:22;16.57;;;11.07;;
10920;SDS011;5513;50.580;8.818;2022-12-07T04:39:51;15.43;;;12.87;;
10920;SDS011;5513;50.580;8.818;2022-12-07T04:42:21;17.53;;;11.30;;
10920;SDS011;5513;50.580;8.818;2022-12-07T04:44:49;14.00;;;11.00;;
10920;SDS011;5513;50.580;8.818;2022-12-07T04:47:18;16.50;;;10.77;;
10920;SDS011;5513;50.580;8.818;2022-12-07T04:49:48;16.07;;;10.57;;
10920;SDS011;5513;50.580;8.818;2022-12-07T04:52:17;15.60;;;10.37;;
10920;SDS011;5513;50.580;8.818;2022-12-07T04:54:47;15.00;;;10.27;;
10920;SDS011;5513;50.580;8.818;2022-12-07T04:57:15;18.00;;;10.60;;
10920;SDS011;5513;50.580;8.818;2022-12-07T04:59:44;14.50;;;10.20;;
10920;SDS011;5513;50.580;8.818;2022-12-07T05:02:12;18.10;;;10.27;;
10920;SDS011;5513;50.580;8.818;2022-12-07T05:04:41;16.93;;;11.17;;
10920;SDS011;5513;50.580;8.818;2022-12-07T05:07:09;18.20;;;11.10;;
10920;SDS011;5513;50.580;8.818;2022-12-07T05:09:39;15.93;;;10.57;;
10920;SDS011;5513;50.580;8.818;2022-12-07T05:12:09;16.77;;;10.90;;
10920;SDS011;5513;50.580;8.818;2022-12-07T05:14:37;17.83;;;11.50;;
10920;SDS011;5513;50.580;8.818;2022-12-07T05:17:06;16.33;;;12.03;;
10920;SDS011;5513;50.580;8.818;2022-12-07T05:19:37;17.57;;;11.47;;
10920;SDS011;5513;50.580;8.818;2022-12-07T05:22:08;19.50;;;12.17;;
10920;SDS011;5513;50.580;8.818;2022-12-07T05:24:37;17.73;;;11.60;;
10920;SDS011;5513;50.580;8.818;2022-12-07T05:27:06;17.60;;;11.33;;
10920;SDS011;5513;50.580;8.818;2022-12-07T05:29:37;17.77;;;11.13;;
10920;SDS011;5513;50.580;8.818;2022-12-07T05:32:06;16.63;;;11.93;;
10920;SDS011;5513;50.580;8.818;2022-12-07T05:34:37;18.43;;;11.70;;
10920;SDS011;5513;50.580;8.818;2022-12-07T05:37:06;20.93;;;13.00;;
10920;SDS011;5513;50.580;8.818;2022-12-07T05:39:34;18.80;;;12.80;;
10920;SDS011;5513;50.580;8.818;2022-12-07T05:42:04;21.20;;;14.13;;
10920;SDS011;5513;50.580;8.818;2022-12-07T05:44:44;19.60;;;12.53;;
10920;SDS011;5513;50.580;8.818;2022-12-07T05:47:14;19.57;;;12.80;;
10920;SDS011;5513;50.580;8.818;2022-12-07T05:49:43;19.27;;;13.50;;
10920;SDS011;5513;50.580;8.818;2022-12-07T05:52:11;20.03;;;12.70;;
10920;SDS011;5513;50.580;8.818;2022-12-07T05:54:42;21.23;;;13.23;;
10920;SDS011;5513;50.580;8.818;2022-12-07T05:57:10;22.37;;;13.00;;
10920;SDS011;5513;50.580;8.818;2022-12-07T05:59:38;22.90;;;14.00;;
10920;SDS011;5513;50.580;8.818;2022-12-07T06:02:08;21.67;;;13.33;;
10920;SDS011;5513;50.580;8.818;2022-12-07T06:04:39;20.47;;;12.90;;
10920;SDS011;5513;50.580;8.818;2022-12-07T06:07:10;22.27;;;13.60;;
10920;SDS011;5513;50.580;8.818;2022-12-07T06:09:40;21.90;;;13.47;;
10920;SDS011;5513;50.580;8.818;2022-12-07T06:12:09;23.17;;;15.07;;
10920;SDS011;5513;50.580;8.818;2022-12-07T06:14:55;24.17;;;16.37;;
10920;SDS011;5513;50.580;8.818;2022-12-07T06:17:25;21.90;;;14.10;;
10920;SDS011;5513;50.580;8.818;2022-12-07T06:19:54;22.27;;;14.77;;
10920;SDS011;5513;50.580;8.818;2022-12-07T06:22:22;25.10;;;14.13;;
10920;SDS011;5513;50.580;8.818;2022-12-07T06:24:50;24.40;;;15.13;;
10920;SDS011;5513;50.580;8.818;2022-12-07T06:27:19;25.07;;;14.63;;
10920;SDS011;5513;50.580;8.818;2022-12-07T06:29:48;24.53;;;14.63;;
10920;SDS011;5513;50.580;8.818;2022-12-07T06:32:17;21.93;;;14.03;;
10920;SDS011;5513;50.580;8.818;2022-12-07T06:34:47;24.20;;;14.23;;
10920;SDS011;5513;50.580;8.818;2022-12-07T06:37:15;22.23;;;13.33;;
10920;SDS011;5513;50.580;8.818;2022-12-07T06:39:43;19.97;;;13.93;;
10920;SDS011;5513;50.580;8.818;2022-12-07T06:42:13;23.87;;;14.50;;
10920;SDS011;5513;50.580;8.818;2022-12-07T06:44:41;23.23;;;15.00;;
10920;SDS011;5513;50.580;8.818;2022-12-07T06:47:10;22.97;;;14.60;;
10920;SDS011;5513;50.580;8.818;2022-12-07T06:50:02;25.03;;;15.33;;
10920;SDS011;5513;50.580;8.818;2022-12-07T06:52:36;24.10;;;14.70;;
10920;SDS011;5513;50.580;8.818;2022-12-07T06:55:05;21.13;;;13.97;;
10920;SDS011;5513;50.580;8.818;2022-12-07T06:57:37;22.77;;;15.13;;
10920;SDS011;5513;50.580;8.818;2022-12-07T07:00:06;21.80;;;14.27;;
10920;SDS011;5513;50.580;8.818;2022-12-07T07:02:35;21.70;;;13.77;;
10920;SDS011;5513;50.580;8.818;2022-12-07T07:05:05;21.33;;;13.43;;
10920;SDS011;5513;50.580;8.818;2022-12-07T07:07:34;21.80;;;13.50;;
10920;SDS011;5513;50.580;8.818;2022-12-07T07:10:23;20.03;;;13.27;;
10920;SDS011;5513;50.580;8.818;2022-12-07T07:12:52;21.90;;;13.70;;
10920;SDS011;5513;50.580;8.818;2022-12-07T07:15:23;18.80;;;12.70;;
10920;SDS011;5513;50.580;8.818;2022-12-07T07:17:52;23.40;;;13.07;;
10920;SDS011;5513;50.580;8.818;2022-12-07T07:20:21;18.20;;;12.33;;
10920;SDS011;5513;50.580;8.818;2022-12-07T07:22:50;18.80;;;12.07;;
10920;SDS011;5513;50.580;8.818;2022-12-07T07:25:22;20.67;;;12.60;;
10920;SDS011;5513;50.580;8.818;2022-12-07T07:27:50;18.50;;;11.97;;
10920;SDS011;5513;50.580;8.818;2022-12-07T07:30:18;22.60;;;12.67;;
10920;SDS011;5513;50.580;8.818;2022-12-07T07:32:47;19.77;;;12.47;;
10920;SDS011;5513;50.580;8.818;2022-12-07T07:35:16;18.80;;;11.67;;
10920;SDS011;5513;50.580;8.818;2022-12-07T07:37:47;17.27;;;11.47;;
10920;SDS011;5513;50.580;8.818;2022-12-07T07:40:19;14.97;;;10.97;;
10920;SDS011;5513;50.580;8.818;2022-12-07T07:42:47;16.17;;;11.13;;
10920;SDS011;5513;50.580;8.818;2022-12-07T07:45:16;17.40;;;12.00;;
10920;SDS011;5513;50.580;8.818;2022-12-07T07:47:48;18.70;;;11.47;;
10920;SDS011;5513;50.580;8.818;2022-12-07T07:50:16;17.93;;;10.73;;
10920;SDS011;5513;50.580;8.818;2022-12-07T07:52:47;17.77;;;11.23;;
10920;SDS011;5513;50.580;8.818;2022-12-07T07:55:15;15.67;;;10.40;;
10920;SDS011;5513;50.580;8.818;2022-12-07T07:57:44;16.93;;;10.93;;
10920;SDS011;5513;50.580;8.818;2022-12-07T08:00:20;18.30;;;11.43;;
10920;SDS011;5513;50.580;8.818;2022-12-07T08:02:49;19.10;;;11.43;;
10920;SDS011;5513;50.580;8.818;2022-12-07T08:05:18;18.97;;;12.20;;
10920;SDS011;5513;50.580;8.818;2022-12-07T08:07:48;19.33;;;12.57;;
10920;SDS011;5513;50.580;8.818;2022-12-07T08:10:17;18.60;;;12.73;;
10920;SDS011;5513;50.580;8.818;2022-12-07T08:12:46;18.83;;;12.83;;
10920;SDS011;5513;50.580;8.818;2022-12-07T08:15:31;22.60;;;13.50;;
10920;SDS011;5513;50.580;8.818;2022-12-07T08:18:00;21.00;;;13.60;;
10920;SDS011;5513;50.580;8.818;2022-12-07T08:20:29;21.80;;;14.03;;
10920;SDS011;5513;50.580;8.818;2022-12-07T08:23:00;23.43;;;14.23;;
10920;SDS011;5513;50.580;8.818;2022-12-07T08:25:28;23.33;;;16.13;;
10920;SDS011;5513;50.580;8.818;2022-12-07T08:27:57;22.30;;;14.27;;
10920;SDS011;5513;50.580;8.818;2022-12-07T08:30:26;23.17;;;14.77;;
10920;SDS011;5513;50.580;8.818;2022-12-07T08:32:56;22.47;;;14.60;;
10920;SDS011;5513;50.580;8.818;2022-12-07T08:35:24;23.73;;;14.90;;
10920;SDS011;5513;50.580;8.818;2022-12-07T08:37:53;26.20;;;14.00;;
10920;SDS011;5513;50.580;8.818;2022-12-07T08:40:25;23.03;;;15.13;;
10920;SDS011;5513;50.580;8.818;2022-12-07T08:42:54;22.27;;;14.13;;
10920;SDS011;5513;50.580;8.818;2022-12-07T08:45:22;24.23;;;15.33;;
10920;SDS011;5513;50.580;8.818;2022-12-07T08:47:54;23.93;;;14.63;;
10920;SDS011;5513;50.580;8.818;2022-12-07T08:50:25;19.93;;;13.43;;
10920;SDS011;5513;50.580;8.818;2022-12-07T08:52:55;22.43;;;14.37;;
10920;SDS011;5513;50.580;8.818;2022-12-07T08:55:27;19.50;;;13.20;;
10920;SDS011;5513;50.580;8.818;2022-12-07T08:57:58;21.20;;;14.20;;
10920;SDS011;5513;50.580;8.818;2022-12-07T09:00:28;19.77;;;12.83;;
10920;SDS011;5513;50.580;8.818;2022-12-07T09:02:56;18.93;;;12.87;;
10920;SDS011;5513;50.580;8.818;2022-12-07T09:05:25;19.60;;;11.93;;
10920;SDS011;5513;50.580;8.818;2022-12-07T09:07:54;18.27;;;11.90;;
10920;SDS011;5513;50.580;8.818;2022-12-07T09:10:29;20.00;;;12.20;;
10920;SDS011;5513;50.580;8.818;2022-12-07T09:12:58;17.93;;;12.30;;
10920;SDS011;5513;50.580;8.818;2022-12-07T09:15:29;17.87;;;11.57;;
10920;SDS011;5513;50.580;8.818;2022-12-07T09:17:58;17.07;;;12.20;;
10920;SDS011;5513;50.580;8.818;2022-12-07T09:20:29;20.53;;;12.13;;
10920;SDS011;5513;50.580;8.818;2022-12-07T09:22:58;15.93;;;10.77;;
10920;SDS011;5513;50.580;8.818;2022-12-07T09:25:29;19.20;;;11.50;;
10920;SDS011;5513;50.580;8.818;2022-12-07T09:27:58;17.53;;;11.30;;
10920;SDS011;5513;50.580;8.818;2022-12-07T09:30:27;19.87;;;12.50;;
10920;SDS011;5513;50.580;8.818;2022-12-07T09:32:58;17.63;;;11.00;;
10920;SDS011;5513;50.580;8.818;2022-12-07T09:35:26;19.30;;;11.63;;
10920;SDS011;5513;50.580;8.818;2022-12-07T09:37:55;15.13;;;10.83;;
10920;SDS011;5513;50.580;8.818;2022-12-07T09:40:24;18.37;;;11.20;;
10920;SDS011;5513;50.580;8.818;2022-12-07T09:42:55;19.17;;;11.40;;
10920;SDS011;5513;50.580;8.818;2022-12-07T09:45:24;15.47;;;10.73;;
10920;SDS011;5513;50.580;8.818;2022-12-07T09:48:00;14.73;;;9.93;;
10920;SDS011;5513;50.580;8.818;2022-12-07T09:50:30;13.00;;;9.53;;
10920;SDS011;5513;50.580;8.818;2022-12-07T09:53:05;19.50;;;9.40;;
10920;SDS011;5513;50.580;8.818;2022-12-07T09:55:36;13.13;;;8.43;;
10920;SDS011;5513;50.580;8.818;2022-12-07T09:58:08;13.70;;;8.20;;
10920;SDS011;5513;50.580;8.818;2022-12-07T10:00:48;16.00;;;8.27;;
10920;SDS011;5513;50.580;8.818;2022-12-07T10:03:19;13.53;;;8.00;;
10920;SDS011;5513;50.580;8.818;2022-12-07T10:05:49;11.77;;;7.10;;
10920;SDS011;5513;50.580;8.818;2022-12-07T10:08:21;13.63;;;6.83;;
10920;SDS011;5513;50.580;8.818;2022-12-07T10:10:50;9.57;;;6.53;;
10920;SDS011;5513;50.580;8.818;2022-12-07T10:13:22;16.20;;;9.20;;
10920;SDS011;5513;50.580;8.818;2022-12-07T10:16:03;12.70;;;6.80;;
10920;SDS011;5513;50.580;8.818;2022-12-07T10:18:35;13.83;;;9.77;;
10920;SDS011;5513;50.580;8.818;2022-12-07T10:21:12;9.20;;;6.13;;
10920;SDS011;5513;50.580;8.818;2022-12-07T10:23:58;8.30;;;5.20;;
10920;SDS011;5513;50.580;8.818;2022-12-07T10:26:31;9.00;;;5.27;;
10920;SDS011;5513;50.580;8.818;2022-12-07T10:29:14;10.37;;;6.90;;
10920;SDS011;5513;50.580;8.818;2022-12-07T10:31:50;9.47;;;5.30;;
10920;SDS011;5513;50.580;8.818;2022-12-07T10:34:25;6.83;;;5.37;;
10920;SDS011;5513;50.580;8.818;2022-12-07T10:39:44;9.07;;;5.10;;
10920;SDS011;5513;50.580;8.818;2022-12-07T10:42:16;7.83;;;5.20;;
10920;SDS011;5513;50.580;8.818;2022-12-07T10:44:48;6.97;;;4.67;;
10920;SDS011;5513;50.580;8.818;2022-12-07T10:47:22;8.00;;;5.70;;
10920;SDS011;5513;50.580;8.818;2022-12-07T10:50:05;8.30;;;4.73;;
10920;SDS011;5513;50.580;8.818;2022-12-07T10:52:50;8.90;;;4.97;;
10920;SDS011;5513;50.580;8.818;2022-12-07T10:55:34;6.67;;;4.17;;
10920;SDS011;5513;50.580;8.818;2022-12-07T10:58:23;10.53;;;4.20;;
10920;SDS011;5513;50.580;8.818;2022-12-07T11:01:08;6.00;;;4.00;;
10920;SDS011;5513;50.580;8.818;2022-12-07T11:03:48;6.90;;;4.20;;
10920;SDS011;5513;50.580;8.818;2022-12-07T11:06:34;9.43;;;5.47;;
10920;SDS011;5513;50.580;8.818;2022-12-07T11:09:31;9.20;;;4.10;;
10920;SDS011;5513;50.580;8.818;2022-12-07T11:12:34;8.83;;;3.90;;
10920;SDS011;5513;50.580;8.818;2022-12-07T11:15:17;8.03;;;4.00;;
10920;SDS011;5513;50.580;8.818;2022-12-07T11:17:54;6.13;;;3.20;;
10920;SDS011;5513;50.580;8.818;2022-12-07T11:20:39;5.67;;;3.23;;
10920;SDS011;5513;50.580;8.818;2022-12-07T11:23:16;5.73;;;3.30;;
10920;SDS011;5513;50.580;8.818;2022-12-07T11:25:50;7.63;;;3.50;;
10920;SDS011;5513;50.580;8.818;2022-12-07T11:28:27;6.37;;;4.00;;
10920;SDS011;5513;50.580;8.818;2022-12-07T11:31:11;7.90;;;3.63;;
10920;SDS011;5513;50.580;8.818;2022-12-07T11:34:00;6.53;;;3.30;;
10920;SDS011;5513;50.580;8.818;2022-12-07T11:36:37;7.27;;;2.90;;
10920;SDS011;5513;50.580;8.818;2022-12-07T11:39:23;9.30;;;3.13;;
10920;SDS011;5513;50.580;8.818;2022-12-07T11:41:55;9.33;;;3.10;;
10920;SDS011;5513;50.580;8.818;2022-12-07T11:44:30;3.80;;;2.17;;
10920;SDS011;5513;50.580;8.818;2022-12-07T11:47:07;5.70;;;2.10;;
10920;SDS011;5513;50.580;8.818;2022-12-07T11:49:44;7.30;;;2.13;;
10920;SDS011;5513;50.580;8.818;2022-12-07T11:52:22;8.53;;;2.50;;
10920;SDS011;5513;50.580;8.818;2022-12-07T11:54:58;6.07;;;2.10;;
10920;SDS011;5513;50.580;8.818;2022-12-07T11:57:30;6.57;;;2.60;;
10920;SDS011;5513;50.580;8.818;2022-12-07T12:00:12;5.30;;;3.03;;
10920;SDS011;5513;50.580;8.818;2022-12-07T12:02:47;7.57;;;2.93;;
10920;SDS011;5513;50.580;8.818;2022-12-07T12:05:22;4.30;;;2.40;;
10920;SDS011;5513;50.580;8.818;2022-12-07T12:07:55;4.97;;;2.10;;
10920;SDS011;5513;50.580;8.818;2022-12-07T12:10:55;5.50;;;2.00;;
10920;SDS011;5513;50.580;8.818;2022-12-07T12:13:39;3.97;;;2.00;;
10920;SDS011;5513;50.580;8.818;2022-12-07T12:17:10;2.53;;;1.60;;
10920;SDS011;5513;50.580;8.818;2022-12-07T12:19:59;4.20;;;1.57;;
10920;SDS011;5513;50.580;8.818;2022-12-07T12:22:35;4.63;;;1.90;;
10920;SDS011;5513;50.580;8.818;2022-12-07T12:25:06;6.00;;;1.70;;
10920;SDS011;5513;50.580;8.818;2022-12-07T12:27:40;5.37;;;1.93;;
10920;SDS011;5513;50.580;8.818;2022-12-07T12:30:32;9.27;;;6.50;;
10920;SDS011;5513;50.580;8.818;2022-12-07T12:33:04;5.43;;;3.90;;
10920;SDS011;5513;50.580;8.818;2022-12-07T12:35:41;5.77;;;2.00;;
10920;SDS011;5513;50.580;8.818;2022-12-07T12:38:25;5.63;;;2.73;;
10920;SDS011;5513;50.580;8.818;2022-12-07T12:40:57;2.90;;;1.73;;
10920;SDS011;5513;50.580;8.818;2022-12-07T12:43:44;3.13;;;2.00;;
10920;SDS011;5513;50.580;8.818;2022-12-07T12:55:22;4.63;;;2.40;;
10920;SDS011;5513;50.580;8.818;2022-12-07T12:58:32;4.20;;;2.00;;
10920;SDS011;5513;50.580;8.818;2022-12-07T13:04:18;4.53;;;2.10;;
10920;SDS011;5513;50.580;8.818;2022-12-07T13:06:56;8.13;;;2.47;;
10920;SDS011;5513;50.580;8.818;2022-12-07T13:09:28;8.73;;;2.17;;
10920;SDS011;5513;50.580;8.818;2022-12-07T13:12:03;6.10;;;2.13;;
10920;SDS011;5513;50.580;8.818;2022-12-07T13:14:52;9.17;;;2.17;;
10920;SDS011;5513;50.580;8.818;2022-12-07T13:20:51;7.27;;;2.70;;
10920;SDS011;5513;50.580;8.818;2022-12-07T13:23:26;5.37;;;2.67;;
10920;SDS011;5513;50.580;8.818;2022-12-07T13:26:00;5.03;;;2.27;;
10920;SDS011;5513;50.580;8.818;2022-12-07T13:28:45;5.93;;;2.50;;
10920;SDS011;5513;50.580;8.818;2022-12-07T13:34:00;6.80;;;2.40;;
10920;SDS011;5513;50.580;8.818;2022-12-07T13:36:30;5.53;;;2.53;;
10920;SDS011;5513;50.580;8.818;2022-12-07T13:39:17;6.00;;;2.13;;
10920;SDS011;5513;50.580;8.818;2022-12-07T13:41:49;6.53;;;2.47;;
10920;SDS011;5513;50.580;8.818;2022-12-07T13:44:21;4.40;;;2.20;;
10920;SDS011;5513;50.580;8.818;2022-12-07T13:46:53;5.53;;;1.97;;
10920;SDS011;5513;50.580;8.818;2022-12-07T13:49:28;3.70;;;2.10;;
10920;SDS011;5513;50.580;8.818;2022-12-07T13:52:08;4.37;;;2.17;;
10920;SDS011;5513;50.580;8.818;2022-12-07T13:54:43;6.00;;;2.20;;
10920;SDS011;5513;50.580;8.818;2022-12-07T13:57:13;4.20;;;2.37;;
10920;SDS011;5513;50.580;8.818;2022-12-07T13:59:43;7.33;;;2.37;;
10920;SDS011;5513;50.580;8.818;2022-12-07T14:02:19;4.37;;;2.00;;
10920;SDS011;5513;50.580;8.818;2022-12-07T14:04:51;7.53;;;1.80;;
10920;SDS011;5513;50.580;8.818;2022-12-07T14:07:34;6.97;;;1.90;;
10920;SDS011;5513;50.580;8.818;2022-12-07T14:10:04;5.07;;;1.97;;
10920;SDS011;5513;50.580;8.818;2022-12-07T14:12:35;4.10;;;2.00;;
10920;SDS011;5513;50.580;8.818;2022-12-07T14:15:15;5.90;;;2.10;;
10920;SDS011;5513;50.580;8.818;2022-12-07T14:17:49;3.37;;;1.87;;
10920;SDS011;5513;50.580;8.818;2022-12-07T14:20:28;7.23;;;2.20;;
10920;SDS011;5513;50.580;8.818;2022-12-07T14:22:59;3.90;;;1.80;;
10920;SDS011;5513;50.580;8.818;2022-12-07T14:25:45;4.13;;;2.03;;
10920;SDS011;5513;50.580;8.818;2022-12-07T14:28:26;3.83;;;1.90;;
10920;SDS011;5513;50.580;8.818;2022-12-07T14:30:59;4.93;;;1.90;;
10920;SDS011;5513;50.580;8.818;2022-12-07T14:33:28;4.47;;;1.90;;
10920;SDS011;5513;50.580;8.818;2022-12-07T14:35:57;6.00;;;1.90;;
10920;SDS011;5513;50.580;8.818;2022-12-07T14:38:26;5.20;;;1.97;;
10920;SDS011;5513;50.580;8.818;2022-12-07T14:40:54;5.37;;;1.80;;
10920;SDS011;5513;50.580;8.818;2022-12-07T14:43:43;6.00;;;1.97;;
10920;SDS011;5513;50.580;8.818;2022-12-07T14:46:35;2.07;;;1.63;;
10920;SDS011;5513;50.580;8.818;2022-12-07T14:49:05;6.43;;;2.03;;
10920;SDS011;5513;50.580;8.818;2022-12-07T14:51:55;5.90;;;1.80;;
10920;SDS011;5513;50.580;8.818;2022-12-07T14:54:46;6.80;;;2.63;;
10920;SDS011;5513;50.580;8.818;2022-12-07T14:57:18;6.33;;;2.30;;
10920;SDS011;5513;50.580;8.818;2022-12-07T14:59:46;6.73;;;2.50;;
10920;SDS011;5513;50.580;8.818;2022-12-07T15:02:21;5.23;;;2.23;;
10920;SDS011;5513;50.580;8.818;2022-12-07T15:04:49;4.90;;;2.20;;
10920;SDS011;5513;50.580;8.818;2022-12-07T15:07:18;6.83;;;2.30;;
10920;SDS011;5513;50.580;8.818;2022-12-07T15:09:51;5.43;;;2.47;;
10920;SDS011;5513;50.580;8.818;2022-12-07T15:12:22;5.43;;;2.93;;
10920;SDS011;5513;50.580;8.818;2022-12-07T15:14:51;16.40;;;9.53;;
10920;SDS011;5513;50.580;8.818;2022-12-07T15:17:21;7.07;;;3.00;;
10920;SDS011;5513;50.580;8.818;2022-12-07T15:19:57;16.10;;;8.83;;
10920;SDS011;5513;50.580;8.818;2022-12-07T15:22:26;153.17;;;91.00;;
10920;SDS011;5513;50.580;8.818;2022-12-07T15:25:03;56.17;;;29.93;;
10920;SDS011;5513;50.580;8.818;2022-12-07T15:27:32;107.70;;;61.87;;
10920;SDS011;5513;50.580;8.818;2022-12-07T15:30:02;4.90;;;3.47;;
10920;SDS011;5513;50.580;8.818;2022-12-07T15:32:33;7.03;;;3.30;;
10920;SDS011;5513;50.580;8.818;2022-12-07T15:35:04;5.17;;;2.83;;
10920;SDS011;5513;50.580;8.818;2022-12-07T15:37:34;6.33;;;2.90;;
10920;SDS011;5513;50.580;8.818;2022-12-07T15:40:04;7.17;;;2.80;;
10920;SDS011;5513;50.580;8.818;2022-12-07T15:42:33;7.37;;;2.63;;
10920;SDS011;5513;50.580;8.818;2022-12-07T15:45:04;5.27;;;2.93;;